createdAt,value
2019-01-27T00:00:32.388Z,8.40
2019-01-27T00:03:13.418Z,7.97
2019-01-27T00:05:54.268Z,7.50
2019-01-27T00:08:35.072Z,6.50
2019-01-27T00:14:05.306Z,7.67
2019-01-27T00:16:46.612Z,6.30
2019-01-27T00:19:26.916Z,6.40
2019-01-27T00:25:00.712Z,6.13
2019-01-27T00:27:41.113Z,6.87
2019-01-27T00:30:21.993Z,6.33
2019-01-27T00:35:45.305Z,5.80
2019-01-27T00:38:26.150Z,6.33
2019-01-27T00:41:09.510Z,6.07
2019-01-27T00:43:50.159Z,5.53
2019-01-27T00:46:31.162Z,4.83
2019-01-27T00:51:58.657Z,5.70
2019-01-27T00:54:40.477Z,6.13
2019-01-27T00:57:21.090Z,5.70
2019-01-27T01:00:02.000Z,5.40
2019-01-27T01:02:43.120Z,6.20
2019-01-27T01:08:10.428Z,4.37
2019-01-27T01:13:33.880Z,4.43
2019-01-27T01:16:14.708Z,4.07
2019-01-27T01:18:43.290Z,4.70
2019-01-27T01:21:31.152Z,3.80
2019-01-27T01:24:18.896Z,4.47
2019-01-27T01:27:06.749Z,5.17
2019-01-27T01:29:54.597Z,3.63
2019-01-27T01:32:23.114Z,5.20
2019-01-27T01:35:11.140Z,4.43
2019-01-27T01:37:58.909Z,5.17
2019-01-27T01:40:27.311Z,4.47
2019-01-27T01:43:15.085Z,5.80
2019-01-27T01:46:02.521Z,4.40
2019-01-27T01:48:50.311Z,5.17
2019-01-27T01:51:40.452Z,4.57
2019-01-27T01:54:28.215Z,4.23
2019-01-27T01:57:15.993Z,3.87
2019-01-27T02:00:24.486Z,3.97
2019-01-27T02:03:12.246Z,4.00
2019-01-27T02:06:11.938Z,4.37
2019-01-27T02:15:00.416Z,5.47
2019-01-27T02:17:37.314Z,4.43
2019-01-27T02:20:25.171Z,5.13
2019-01-27T02:23:12.938Z,5.30
2019-01-27T02:26:00.683Z,4.47
2019-01-27T02:28:48.449Z,4.53
2019-01-27T02:31:36.210Z,5.53
2019-01-27T02:34:24.013Z,4.00
2019-01-27T02:37:11.811Z,3.73
2019-01-27T02:39:59.789Z,4.73
2019-01-27T02:45:26.547Z,4.93
2019-01-27T02:48:07.517Z,4.47
2019-01-27T02:50:48.622Z,6.13
2019-01-27T02:53:29.904Z,6.13
2019-01-27T02:56:10.889Z,6.60
2019-01-27T02:58:52.007Z,6.00
2019-01-27T03:01:33.098Z,5.40
2019-01-27T03:04:13.326Z,5.50
2019-01-27T03:06:55.884Z,5.53
2019-01-27T03:09:24.913Z,7.13
2019-01-27T03:12:12.655Z,6.43
2019-01-27T03:14:41.074Z,6.00
2019-01-27T03:17:28.835Z,5.70
2019-01-27T03:20:16.591Z,7.03
2019-01-27T03:23:04.707Z,6.63
2019-01-27T03:25:52.519Z,5.00
2019-01-27T03:28:40.568Z,6.50
2019-01-27T03:31:28.329Z,7.07
2019-01-27T03:34:16.086Z,8.70
2019-01-27T03:37:04.019Z,5.80
2019-01-27T03:39:52.107Z,5.87
2019-01-27T03:42:33.187Z,15.27
2019-01-27T03:45:17.473Z,7.83
2019-01-27T03:50:40.486Z,6.13
2019-01-27T03:53:21.548Z,6.17
2019-01-27T03:56:02.505Z,6.23
2019-01-27T03:58:43.261Z,6.13
2019-01-27T04:04:10.544Z,7.13
2019-01-27T04:06:51.453Z,4.40
2019-01-27T04:09:32.312Z,4.30
2019-01-27T04:12:12.649Z,4.80
2019-01-27T04:14:53.542Z,6.80
2019-01-27T04:17:33.780Z,5.37
2019-01-27T04:22:58.962Z,6.27
2019-01-27T04:31:16.631Z,6.37
2019-01-27T04:33:57.209Z,5.70
2019-01-27T04:36:40.481Z,5.93
2019-01-27T04:39:21.327Z,5.80
2019-01-27T04:41:49.739Z,5.27
2019-01-27T04:44:18.155Z,7.37
2019-01-27T04:47:06.095Z,6.07
2019-01-27T04:49:53.892Z,5.17
2019-01-27T04:52:41.715Z,7.20
2019-01-27T04:55:30.093Z,6.43
2019-01-27T04:58:17.923Z,5.13
2019-01-27T05:07:07.340Z,4.23
2019-01-27T05:09:55.115Z,5.33
2019-01-27T05:12:42.724Z,4.67
2019-01-27T05:18:25.387Z,5.03
2019-01-27T05:21:13.135Z,4.23
2019-01-27T05:24:00.906Z,4.33
2019-01-27T05:26:48.665Z,4.93
2019-01-27T05:29:36.435Z,3.83
2019-01-27T05:32:24.183Z,3.27
2019-01-27T05:35:12.029Z,3.27
2019-01-27T05:37:59.793Z,4.50
2019-01-27T05:40:47.275Z,2.63
2019-01-27T05:43:27.845Z,3.37
2019-01-27T05:46:10.817Z,3.00
2019-01-27T05:48:51.305Z,4.40
2019-01-27T05:51:31.559Z,4.23
2019-01-27T05:54:12.699Z,3.70
2019-01-27T05:56:56.571Z,3.97
2019-01-27T05:59:23.694Z,4.90
2019-01-27T06:02:11.477Z,3.67
2019-01-27T06:04:59.248Z,5.27
2019-01-27T06:07:47.000Z,4.60
2019-01-27T06:10:34.783Z,4.63
2019-01-27T06:13:22.525Z,3.97
2019-01-27T06:16:10.295Z,5.17
2019-01-27T06:18:58.057Z,3.80
2019-01-27T06:21:45.835Z,7.67
2019-01-27T06:24:33.591Z,6.40
2019-01-27T06:27:21.364Z,8.27
2019-01-27T06:30:29.864Z,5.57
2019-01-27T06:36:26.157Z,5.80
2019-01-27T06:39:13.921Z,4.60
2019-01-27T06:42:01.697Z,4.17
2019-01-27T06:44:49.480Z,7.37
2019-01-27T06:47:37.239Z,5.10
2019-01-27T06:50:18.052Z,5.20
2019-01-27T06:52:58.981Z,4.40
2019-01-27T06:55:39.680Z,3.77
2019-01-27T06:58:21.854Z,4.23
2019-01-27T07:01:22.126Z,3.60
2019-01-27T07:03:53.282Z,5.37
2019-01-27T07:06:35.704Z,4.00
2019-01-27T07:12:00.746Z,4.40
2019-01-27T07:15:03.326Z,5.90
2019-01-27T07:20:55.468Z,3.93
2019-01-27T07:23:40.201Z,5.47
2019-01-27T07:29:10.718Z,3.77
2019-01-27T07:31:58.356Z,4.17
2019-01-27T07:41:19.148Z,3.67
2019-01-27T07:47:34.632Z,6.73
2019-01-27T07:56:45.332Z,4.10
2019-01-27T07:59:52.294Z,4.00
2019-01-27T08:02:59.577Z,4.00
2019-01-27T08:11:54.271Z,2.97
2019-01-27T08:17:50.435Z,3.57
2019-01-27T08:20:57.398Z,4.90
2019-01-27T08:24:04.371Z,3.07
2019-01-27T08:27:11.355Z,4.00
2019-01-27T08:33:26.928Z,6.60
2019-01-27T08:36:33.874Z,3.20
2019-01-27T08:42:41.472Z,3.63
2019-01-27T08:45:48.434Z,2.77
2019-01-27T08:48:36.218Z,3.47
2019-01-27T08:53:58.869Z,3.97
2019-01-27T08:56:39.733Z,2.97
2019-01-27T08:59:20.224Z,1.90
2019-01-27T09:08:02.889Z,2.57
2019-01-27T09:13:54.436Z,2.10
2019-01-27T09:16:24.505Z,2.67
2019-01-27T09:19:13.916Z,2.60
2019-01-27T09:22:20.897Z,3.87
2019-01-27T09:25:28.280Z,3.20
2019-01-27T09:34:24.642Z,3.73
2019-01-27T09:37:31.615Z,3.83
2019-01-27T09:43:33.701Z,3.57
2019-01-27T09:52:25.197Z,5.40
2019-01-27T09:55:24.713Z,2.77
2019-01-27T09:58:10.394Z,3.30
2019-01-27T10:00:53.917Z,2.53
2019-01-27T10:03:35.993Z,2.67
2019-01-27T10:06:36.913Z,2.70
2019-01-27T10:09:36.713Z,3.43
2019-01-27T10:12:21.913Z,2.90
2019-01-27T10:17:57.650Z,3.10
2019-01-27T10:20:39.662Z,1.73
2019-01-27T10:23:25.123Z,2.40
2019-01-27T10:26:09.784Z,2.70
2019-01-27T10:31:57.189Z,3.87
2019-01-27T10:37:33.547Z,2.57
2019-01-27T10:40:17.190Z,2.40
2019-01-27T10:43:17.224Z,3.10
2019-01-27T10:45:59.071Z,2.03
2019-01-27T10:51:44.285Z,2.93
2019-01-27T10:57:08.968Z,3.90
2019-01-27T11:02:37.010Z,3.23
2019-01-27T11:05:22.661Z,2.47
2019-01-27T11:08:05.445Z,4.33
2019-01-27T11:11:09.604Z,3.83
2019-01-27T11:13:54.771Z,3.60
2019-01-27T11:19:44.354Z,4.63
2019-01-27T11:22:51.861Z,3.37
2019-01-27T11:25:40.430Z,5.27
2019-01-27T11:28:32.247Z,5.33
2019-01-27T11:31:21.780Z,2.33
2019-01-27T11:34:28.820Z,4.67
2019-01-27T11:43:28.418Z,6.67
2019-01-27T11:46:35.403Z,3.93
2019-01-27T11:49:42.422Z,4.20
2019-01-27T11:52:15.456Z,4.60
2019-01-27T11:55:00.603Z,3.67
2019-01-27T11:57:48.371Z,3.83
2019-01-27T12:03:44.801Z,5.90
2019-01-27T12:06:13.248Z,3.87
2019-01-27T12:09:01.097Z,4.43
2019-01-27T12:11:48.872Z,3.93
2019-01-27T12:14:36.643Z,6.53
2019-01-27T12:17:24.425Z,4.40
2019-01-27T12:20:12.551Z,4.23
2019-01-27T12:22:41.214Z,6.13
2019-01-27T12:25:29.039Z,5.53
2019-01-27T12:28:16.877Z,7.23
2019-01-27T12:33:53.882Z,3.13
2019-01-27T12:36:41.897Z,6.23
2019-01-27T12:39:29.743Z,7.27
2019-01-27T12:42:17.535Z,5.37
2019-01-27T12:45:26.071Z,3.90
2019-01-27T12:48:13.847Z,3.37
2019-01-27T12:50:54.532Z,5.17
2019-01-27T12:56:30.389Z,2.23
2019-01-27T12:59:11.503Z,3.67
2019-01-27T13:01:51.828Z,3.53
2019-01-27T13:04:32.414Z,3.70
2019-01-27T13:07:13.274Z,3.50
2019-01-27T13:09:54.149Z,3.37
2019-01-27T13:12:35.225Z,3.53
2019-01-27T13:15:17.522Z,1.70
2019-01-27T13:17:57.728Z,2.47
2019-01-27T13:20:41.888Z,3.90
2019-01-27T13:26:04.721Z,2.73
2019-01-27T13:31:29.902Z,3.40
2019-01-27T13:34:11.708Z,2.23
2019-01-27T13:36:51.974Z,2.17
2019-01-27T13:39:32.912Z,3.00
2019-01-27T13:42:13.797Z,4.30
2019-01-27T13:47:39.407Z,2.53
2019-01-27T13:50:19.647Z,3.43
2019-01-27T13:53:03.791Z,3.80
2019-01-27T13:55:44.191Z,2.53
2019-01-27T13:58:24.987Z,3.97
2019-01-27T14:03:37.451Z,3.20
2019-01-27T14:06:25.303Z,3.60
2019-01-27T14:09:13.075Z,2.33
2019-01-27T14:12:00.838Z,3.07
2019-01-27T14:14:48.687Z,2.53
2019-01-27T14:17:36.457Z,2.40
2019-01-27T14:20:24.297Z,2.97
2019-01-27T14:23:12.117Z,3.50
2019-01-27T14:25:59.888Z,3.30
2019-01-27T14:34:58.447Z,2.70
2019-01-27T14:37:46.333Z,5.47
2019-01-27T14:40:35.617Z,3.53
2019-01-27T14:43:16.065Z,4.30
2019-01-27T14:48:46.328Z,3.37
2019-01-27T14:51:26.826Z,3.13
2019-01-27T14:54:07.416Z,4.33
2019-01-27T14:56:35.911Z,2.97
2019-01-27T14:59:23.684Z,2.80
2019-01-27T15:02:11.451Z,1.40
2019-01-27T15:04:59.217Z,1.63
2019-01-27T15:07:47.037Z,2.20
2019-01-27T15:10:34.852Z,1.53
2019-01-27T15:13:22.628Z,3.07
2019-01-27T15:16:10.484Z,2.77
2019-01-27T15:21:47.513Z,4.80
2019-01-27T15:24:35.266Z,3.40
2019-01-27T15:27:23.045Z,4.10
2019-01-27T15:30:18.236Z,1.73
2019-01-27T15:33:07.550Z,2.03
2019-01-27T15:35:55.304Z,3.03
2019-01-27T15:38:43.071Z,4.23
2019-01-27T15:41:30.849Z,2.97
2019-01-27T15:44:18.610Z,3.87
2019-01-27T15:47:06.387Z,2.67
2019-01-27T15:49:54.138Z,2.40
2019-01-27T15:52:35.280Z,3.00
2019-01-27T15:55:05.340Z,3.30
2019-01-27T16:00:45.933Z,2.60
2019-01-27T16:03:14.413Z,2.53
2019-01-27T16:06:02.184Z,2.20
2019-01-27T16:08:50.010Z,2.97
2019-01-27T16:11:18.440Z,3.07
2019-01-27T16:14:06.332Z,3.40
2019-01-27T16:16:54.109Z,1.90
2019-01-27T16:19:22.525Z,3.03
2019-01-27T16:22:10.325Z,2.57
2019-01-27T16:24:58.096Z,5.03
2019-01-27T16:27:45.876Z,2.13
2019-01-27T16:30:35.283Z,2.50
2019-01-27T16:33:42.593Z,3.57
2019-01-27T16:36:11.137Z,3.93
2019-01-27T16:38:39.736Z,2.83
2019-01-27T16:41:27.518Z,2.40
2019-01-27T16:44:15.286Z,3.63
2019-01-27T16:47:03.449Z,2.77
2019-01-27T16:49:51.249Z,4.13
2019-01-27T16:55:34.605Z,3.57
2019-01-27T17:01:19.060Z,2.40
2019-01-27T17:04:06.849Z,4.53
2019-01-27T17:06:54.629Z,2.37
2019-01-27T17:09:42.398Z,2.77
2019-01-27T17:12:30.168Z,4.00
2019-01-27T17:15:17.995Z,3.13
2019-01-27T17:18:05.931Z,4.00
2019-01-27T17:20:53.696Z,1.50
2019-01-27T17:23:41.459Z,2.23
2019-01-27T17:26:29.230Z,1.73
2019-01-27T17:29:16.995Z,3.17
2019-01-27T17:32:04.836Z,1.27
2019-01-27T17:34:52.673Z,1.37
2019-01-27T17:37:40.427Z,1.60
2019-01-27T17:40:28.208Z,1.67
2019-01-27T17:43:08.964Z,1.23
2019-01-27T17:51:18.458Z,1.20
2019-01-27T17:54:02.828Z,1.50
2019-01-27T17:59:57.242Z,0.80
2019-01-27T18:02:39.745Z,0.90
2019-01-27T18:05:21.812Z,2.03
2019-01-27T18:08:03.651Z,1.10
2019-01-27T18:10:45.755Z,2.00
2019-01-27T18:16:12.668Z,1.10
2019-01-27T18:18:53.678Z,1.40
2019-01-27T18:21:34.635Z,1.40
2019-01-27T18:24:15.082Z,1.23
2019-01-27T18:26:56.038Z,1.40
2019-01-27T18:29:36.509Z,1.20
2019-01-27T18:32:16.889Z,1.13
2019-01-27T18:34:58.159Z,1.33
2019-01-27T18:40:21.750Z,2.70
2019-01-27T18:43:02.655Z,1.20
2019-01-27T18:45:43.650Z,0.97
2019-01-27T18:48:26.268Z,4.87
2019-01-27T18:51:06.835Z,1.10
2019-01-27T18:56:19.965Z,0.90
2019-01-27T18:59:01.552Z,0.80
2019-01-27T19:01:34.320Z,0.90
2019-01-27T19:04:04.400Z,1.10
2019-01-27T19:06:34.567Z,1.23
2019-01-27T19:09:16.716Z,1.00
2019-01-27T19:11:46.791Z,1.40
2019-01-27T19:14:16.844Z,1.30
2019-01-27T19:17:02.864Z,0.80
2019-01-27T19:19:49.158Z,1.37
2019-01-27T19:22:21.992Z,1.10
2019-01-27T19:24:52.088Z,2.20
2019-01-27T19:27:39.002Z,1.13
2019-01-27T19:30:14.864Z,0.93
2019-01-27T19:32:47.622Z,1.30
2019-01-27T19:35:23.482Z,2.93
2019-01-27T19:37:56.269Z,1.17
2019-01-27T19:40:41.334Z,3.57
2019-01-27T19:43:12.365Z,2.03
2019-01-27T19:45:48.425Z,1.43
2019-01-27T19:48:18.478Z,2.13
2019-01-27T19:50:51.508Z,3.30
2019-01-27T19:53:24.296Z,4.53
2019-01-27T19:56:03.081Z,2.97
2019-01-27T19:58:41.791Z,3.37
2019-01-27T20:01:12.066Z,3.37
2019-01-27T20:03:42.110Z,3.97
2019-01-27T20:06:14.892Z,5.00
2019-01-27T20:08:50.654Z,6.20
2019-01-27T20:11:36.645Z,5.07
2019-01-27T20:14:09.497Z,5.37
2019-01-27T20:16:48.435Z,4.63
2019-01-27T20:19:21.243Z,9.43
2019-01-27T20:22:02.933Z,8.33
2019-01-27T20:24:33.004Z,8.20
2019-01-27T20:27:17.906Z,7.47
2019-01-27T20:29:50.469Z,6.93
2019-01-27T20:32:20.622Z,5.53
2019-01-27T20:34:53.411Z,6.00
2019-01-27T20:37:41.521Z,7.10
2019-01-27T20:40:13.969Z,6.80
2019-01-27T20:42:59.975Z,4.60
2019-01-27T20:45:32.726Z,6.23
2019-01-27T20:48:12.505Z,8.87
2019-01-27T20:50:51.563Z,8.93
2019-01-27T20:53:24.375Z,5.70
2019-01-27T20:55:56.675Z,7.37
2019-01-27T20:58:29.690Z,7.90
2019-01-27T21:00:59.768Z,8.67
2019-01-27T21:03:42.710Z,13.50
2019-01-27T21:06:12.814Z,7.87
2019-01-27T21:08:44.269Z,13.37
2019-01-27T21:11:15.338Z,9.93
2019-01-27T21:13:45.438Z,9.20
2019-01-27T21:16:17.922Z,8.63
2019-01-27T21:18:50.798Z,10.97
2019-01-27T21:21:19.203Z,10.97
2019-01-27T21:23:47.635Z,9.67
2019-01-27T21:26:16.063Z,14.27
2019-01-27T21:28:44.564Z,12.73
2019-01-27T21:31:12.967Z,12.67
2019-01-27T21:33:41.434Z,13.23
2019-01-27T21:36:09.920Z,8.97
2019-01-27T21:38:38.448Z,9.23
2019-01-27T21:41:06.974Z,8.53
2019-01-27T21:43:42.057Z,10.30
2019-01-27T21:46:15.673Z,10.03
2019-01-27T21:48:44.078Z,7.67
2019-01-27T21:51:12.491Z,8.40
2019-01-27T21:53:40.932Z,7.73
2019-01-27T21:56:09.335Z,6.40
2019-01-27T21:58:37.760Z,7.43
2019-01-27T22:01:06.503Z,6.10
2019-01-27T22:03:34.931Z,10.53
2019-01-27T22:06:03.349Z,6.60
2019-01-27T22:08:31.770Z,7.57
2019-01-27T22:11:00.323Z,9.70
2019-01-27T22:13:29.009Z,10.83
2019-01-27T22:15:57.415Z,10.03
2019-01-27T22:18:25.828Z,8.93
2019-01-27T22:20:54.293Z,6.50
2019-01-27T22:23:22.712Z,5.03
2019-01-27T22:25:51.120Z,4.60
2019-01-27T22:28:19.535Z,9.03
2019-01-27T22:30:47.959Z,5.03
2019-01-27T22:33:16.360Z,7.60
2019-01-27T22:35:45.201Z,6.23
2019-01-27T22:38:14.505Z,6.17
2019-01-27T22:40:42.958Z,7.37
2019-01-27T22:43:11.378Z,6.33
2019-01-27T22:45:39.795Z,6.67
2019-01-27T22:48:08.193Z,5.27
2019-01-27T22:50:36.623Z,10.47
2019-01-27T22:53:05.292Z,9.70
2019-01-27T22:55:33.712Z,6.57
2019-01-27T22:58:02.116Z,9.87
2019-01-27T23:00:56.154Z,7.87
2019-01-27T23:03:24.727Z,4.33
2019-01-27T23:05:53.139Z,10.63
2019-01-27T23:08:21.558Z,5.03
2019-01-27T23:10:50.067Z,4.83
2019-01-27T23:13:18.477Z,8.53
2019-01-27T23:15:46.958Z,4.50
2019-01-27T23:18:15.368Z,5.03
2019-01-27T23:20:43.803Z,8.03
2019-01-27T23:23:12.251Z,5.43
2019-01-27T23:25:40.679Z,7.73
2019-01-27T23:28:09.396Z,14.53
2019-01-27T23:30:37.823Z,5.43
2019-01-27T23:33:06.234Z,6.03
2019-01-27T23:35:34.659Z,8.87
2019-01-27T23:38:03.154Z,9.17
2019-01-27T23:40:34.539Z,10.57
2019-01-27T23:43:02.963Z,3.83
2019-01-27T23:45:31.378Z,8.33
2019-01-27T23:47:59.793Z,4.30
2019-01-27T23:50:28.206Z,6.43
2019-01-27T23:52:56.643Z,4.90
2019-01-27T23:55:25.071Z,8.77
2019-01-27T23:57:53.531Z,6.80
